sensor_id;sensor_type;location;lat;lon;timestamp;P1;durP1;ratioP1;P2;durP2;ratioP2
39016;SDS011;24784;45.582;5.276;2024-02-23T00:02:17;5.38;;;1.20;;
39016;SDS011;24784;45.582;5.276;2024-02-23T00:04:43;4.40;;;1.20;;
39016;SDS011;24784;45.582;5.276;2024-02-23T00:07:09;5.95;;;1.60;;
39016;SDS011;24784;45.582;5.276;2024-02-23T00:09:36;5.03;;;1.40;;
39016;SDS011;24784;45.582;5.276;2024-02-23T00:12:04;5.47;;;1.15;;
39016;SDS011;24784;45.582;5.276;2024-02-23T00:14:30;5.90;;;1.40;;
39016;SDS011;24784;45.582;5.276;2024-02-23T00:16:56;1.63;;;1.30;;
39016;SDS011;24784;45.582;5.276;2024-02-23T00:19:26;5.63;;;1.60;;
39016;SDS011;24784;45.582;5.276;2024-02-23T00:21:52;8.18;;;1.60;;
39016;SDS011;24784;45.582;5.276;2024-02-23T00:24:18;11.25;;;1.90;;
39016;SDS011;24784;45.582;5.276;2024-02-23T00:26:45;3.97;;;1.20;;
39016;SDS011;24784;45.582;5.276;2024-02-23T00:29:11;4.05;;;1.40;;
39016;SDS011;24784;45.582;5.276;2024-02-23T00:31:38;6.40;;;1.77;;
39016;SDS011;24784;45.582;5.276;2024-02-23T00:34:06;7.32;;;1.73;;
39016;SDS011;24784;45.582;5.276;2024-02-23T00:36:35;3.90;;;1.55;;
39016;SDS011;24784;45.582;5.276;2024-02-23T00:39:03;4.43;;;1.50;;
39016;SDS011;24784;45.582;5.276;2024-02-23T00:41:29;4.60;;;1.42;;
39016;SDS011;24784;45.582;5.276;2024-02-23T00:43:54;5.05;;;1.98;;
39016;SDS011;24784;45.582;5.276;2024-02-23T00:46:20;5.93;;;1.52;;
39016;SDS011;24784;45.582;5.276;2024-02-23T00:48:45;10.68;;;2.92;;
39016;SDS011;24784;45.582;5.276;2024-02-23T00:51:12;3.03;;;1.23;;
39016;SDS011;24784;45.582;5.276;2024-02-23T00:53:37;16.08;;;2.33;;
39016;SDS011;24784;45.582;5.276;2024-02-23T00:56:03;6.28;;;1.38;;
39016;SDS011;24784;45.582;5.276;2024-02-23T00:58:29;1.88;;;1.10;;
39016;SDS011;24784;45.582;5.276;2024-02-23T01:00:55;6.82;;;1.40;;
39016;SDS011;24784;45.582;5.276;2024-02-23T01:03:20;4.53;;;1.63;;
39016;SDS011;24784;45.582;5.276;2024-02-23T01:05:47;8.30;;;1.30;;
39016;SDS011;24784;45.582;5.276;2024-02-23T01:08:12;3.65;;;1.20;;
39016;SDS011;24784;45.582;5.276;2024-02-23T01:10:38;8.10;;;1.38;;
39016;SDS011;24784;45.582;5.276;2024-02-23T01:13:04;5.57;;;1.20;;
39016;SDS011;24784;45.582;5.276;2024-02-23T01:15:30;5.40;;;1.40;;
39016;SDS011;24784;45.582;5.276;2024-02-23T01:17:56;4.03;;;1.23;;
39016;SDS011;24784;45.582;5.276;2024-02-23T01:20:21;3.35;;;1.35;;
39016;SDS011;24784;45.582;5.276;2024-02-23T01:22:47;9.93;;;1.70;;
39016;SDS011;24784;45.582;5.276;2024-02-23T01:25:13;10.00;;;1.67;;
39016;SDS011;24784;45.582;5.276;2024-02-23T01:27:40;11.05;;;1.40;;
39016;SDS011;24784;45.582;5.276;2024-02-23T01:30:06;9.30;;;1.45;;
39016;SDS011;24784;45.582;5.276;2024-02-23T01:32:33;8.77;;;1.40;;
39016;SDS011;24784;45.582;5.276;2024-02-23T01:34:58;7.55;;;1.60;;
39016;SDS011;24784;45.582;5.276;2024-02-23T01:37:24;5.60;;;1.55;;
39016;SDS011;24784;45.582;5.276;2024-02-23T01:39:49;6.72;;;1.48;;
39016;SDS011;24784;45.582;5.276;2024-02-23T01:42:15;7.50;;;1.15;;
39016;SDS011;24784;45.582;5.276;2024-02-23T01:44:41;6.32;;;1.40;;
39016;SDS011;24784;45.582;5.276;2024-02-23T01:47:06;4.10;;;1.48;;
39016;SDS011;24784;45.582;5.276;2024-02-23T01:49:32;6.38;;;1.50;;
39016;SDS011;24784;45.582;5.276;2024-02-23T01:51:59;6.18;;;1.42;;
39016;SDS011;24784;45.582;5.276;2024-02-23T01:54:25;6.55;;;1.50;;
39016;SDS011;24784;45.582;5.276;2024-02-23T01:56:53;6.43;;;1.20;;
39016;SDS011;24784;45.582;5.276;2024-02-23T01:59:20;7.07;;;1.40;;
39016;SDS011;24784;45.582;5.276;2024-02-23T02:01:47;9.05;;;1.40;;
39016;SDS011;24784;45.582;5.276;2024-02-23T02:04:12;7.15;;;1.75;;
39016;SDS011;24784;45.582;5.276;2024-02-23T02:06:38;4.05;;;1.55;;
39016;SDS011;24784;45.582;5.276;2024-02-23T02:09:04;2.28;;;1.15;;
39016;SDS011;24784;45.582;5.276;2024-02-23T02:11:30;6.43;;;1.38;;
39016;SDS011;24784;45.582;5.276;2024-02-23T02:13:56;7.63;;;1.60;;
39016;SDS011;24784;45.582;5.276;2024-02-23T02:16:22;6.15;;;1.55;;
39016;SDS011;24784;45.582;5.276;2024-02-23T02:18:47;4.75;;;1.50;;
39016;SDS011;24784;45.582;5.276;2024-02-23T02:21:13;8.95;;;1.65;;
39016;SDS011;24784;45.582;5.276;2024-02-23T02:23:39;3.47;;;1.33;;
39016;SDS011;24784;45.582;5.276;2024-02-23T02:26:05;5.78;;;1.60;;
39016;SDS011;24784;45.582;5.276;2024-02-23T02:28:30;10.15;;;3.13;;
39016;SDS011;24784;45.582;5.276;2024-02-23T02:30:56;5.63;;;1.70;;
39016;SDS011;24784;45.582;5.276;2024-02-23T02:33:22;10.38;;;1.50;;
39016;SDS011;24784;45.582;5.276;2024-02-23T02:35:48;6.82;;;2.25;;
39016;SDS011;24784;45.582;5.276;2024-02-23T02:38:15;6.45;;;1.80;;
39016;SDS011;24784;45.582;5.276;2024-02-23T02:40:41;13.70;;;2.00;;
39016;SDS011;24784;45.582;5.276;2024-02-23T02:43:06;9.90;;;1.77;;
39016;SDS011;24784;45.582;5.276;2024-02-23T02:45:33;9.73;;;3.13;;
39016;SDS011;24784;45.582;5.276;2024-02-23T02:48:03;8.52;;;1.90;;
39016;SDS011;24784;45.582;5.276;2024-02-23T02:50:28;11.77;;;2.50;;
39016;SDS011;24784;45.582;5.276;2024-02-23T02:52:54;7.13;;;2.42;;
39016;SDS011;24784;45.582;5.276;2024-02-23T02:55:20;12.43;;;1.95;;
39016;SDS011;24784;45.582;5.276;2024-02-23T02:57:45;7.03;;;1.50;;
39016;SDS011;24784;45.582;5.276;2024-02-23T03:00:11;15.52;;;3.33;;
39016;SDS011;24784;45.582;5.276;2024-02-23T03:02:37;9.57;;;1.98;;
39016;SDS011;24784;45.582;5.276;2024-02-23T03:05:03;8.85;;;2.08;;
39016;SDS011;24784;45.582;5.276;2024-02-23T03:07:29;5.95;;;1.60;;
39016;SDS011;24784;45.582;5.276;2024-02-23T03:09:54;8.43;;;1.77;;
39016;SDS011;24784;45.582;5.276;2024-02-23T03:12:20;7.38;;;1.90;;
39016;SDS011;24784;45.582;5.276;2024-02-23T03:14:46;5.25;;;2.17;;
39016;SDS011;24784;45.582;5.276;2024-02-23T03:17:11;9.55;;;2.00;;
39016;SDS011;24784;45.582;5.276;2024-02-23T03:19:37;8.57;;;1.52;;
39016;SDS011;24784;45.582;5.276;2024-02-23T03:22:03;10.18;;;2.00;;
39016;SDS011;24784;45.582;5.276;2024-02-23T03:24:29;6.13;;;1.50;;
39016;SDS011;24784;45.582;5.276;2024-02-23T03:26:55;7.53;;;1.75;;
39016;SDS011;24784;45.582;5.276;2024-02-23T03:29:21;3.97;;;1.70;;
39016;SDS011;24784;45.582;5.276;2024-02-23T03:31:54;8.23;;;2.10;;
39016;SDS011;24784;45.582;5.276;2024-02-23T03:34:20;10.05;;;1.85;;
39016;SDS011;24784;45.582;5.276;2024-02-23T03:36:45;5.25;;;1.60;;
39016;SDS011;24784;45.582;5.276;2024-02-23T03:39:11;10.30;;;1.90;;
39016;SDS011;24784;45.582;5.276;2024-02-23T03:41:37;3.85;;;1.70;;
39016;SDS011;24784;45.582;5.276;2024-02-23T03:44:02;7.85;;;1.73;;
39016;SDS011;24784;45.582;5.276;2024-02-23T03:46:28;3.65;;;1.58;;
39016;SDS011;24784;45.582;5.276;2024-02-23T03:48:53;9.45;;;2.17;;
39016;SDS011;24784;45.582;5.276;2024-02-23T03:51:19;6.45;;;1.83;;
39016;SDS011;24784;45.582;5.276;2024-02-23T03:53:45;6.60;;;1.50;;
39016;SDS011;24784;45.582;5.276;2024-02-23T03:56:10;7.97;;;2.08;;
39016;SDS011;24784;45.582;5.276;2024-02-23T03:58:36;6.07;;;1.77;;
39016;SDS011;24784;45.582;5.276;2024-02-23T04:01:01;8.77;;;1.98;;
39016;SDS011;24784;45.582;5.276;2024-02-23T04:03:27;5.22;;;2.13;;
39016;SDS011;24784;45.582;5.276;2024-02-23T04:05:53;6.32;;;1.58;;
39016;SDS011;24784;45.582;5.276;2024-02-23T04:08:18;14.77;;;2.42;;
39016;SDS011;24784;45.582;5.276;2024-02-23T04:10:44;6.18;;;1.50;;
39016;SDS011;24784;45.582;5.276;2024-02-23T04:13:10;10.45;;;2.00;;
39016;SDS011;24784;45.582;5.276;2024-02-23T04:15:38;8.32;;;2.17;;
39016;SDS011;24784;45.582;5.276;2024-02-23T04:18:04;7.47;;;1.90;;
39016;SDS011;24784;45.582;5.276;2024-02-23T04:20:30;8.20;;;1.85;;
39016;SDS011;24784;45.582;5.276;2024-02-23T04:22:57;7.00;;;1.95;;
39016;SDS011;24784;45.582;5.276;2024-02-23T04:25:22;5.57;;;1.75;;
39016;SDS011;24784;45.582;5.276;2024-02-23T04:27:48;7.03;;;1.83;;
39016;SDS011;24784;45.582;5.276;2024-02-23T04:30:14;7.35;;;2.55;;
39016;SDS011;24784;45.582;5.276;2024-02-23T04:32:39;4.97;;;1.75;;
39016;SDS011;24784;45.582;5.276;2024-02-23T04:35:05;8.75;;;2.13;;
39016;SDS011;24784;45.582;5.276;2024-02-23T04:39:56;6.88;;;1.50;;
39016;SDS011;24784;45.582;5.276;2024-02-23T04:42:22;4.10;;;1.90;;
39016;SDS011;24784;45.582;5.276;2024-02-23T04:44:48;8.63;;;1.92;;
39016;SDS011;24784;45.582;5.276;2024-02-23T04:47:14;4.35;;;2.05;;
39016;SDS011;24784;45.582;5.276;2024-02-23T04:49:40;7.40;;;1.80;;
39016;SDS011;24784;45.582;5.276;2024-02-23T04:52:06;5.88;;;1.88;;
39016;SDS011;24784;45.582;5.276;2024-02-23T04:54:33;8.45;;;1.90;;
39016;SDS011;24784;45.582;5.276;2024-02-23T04:57:00;10.45;;;1.92;;
39016;SDS011;24784;45.582;5.276;2024-02-23T04:59:25;5.75;;;2.00;;
39016;SDS011;24784;45.582;5.276;2024-02-23T05:01:51;11.63;;;2.42;;
39016;SDS011;24784;45.582;5.276;2024-02-23T05:04:17;7.15;;;1.85;;
39016;SDS011;24784;45.582;5.276;2024-02-23T05:06:42;4.68;;;2.22;;
39016;SDS011;24784;45.582;5.276;2024-02-23T05:09:08;9.23;;;1.90;;
39016;SDS011;24784;45.582;5.276;2024-02-23T05:11:34;9.70;;;1.80;;
39016;SDS011;24784;45.582;5.276;2024-02-23T05:14:00;8.73;;;2.10;;
39016;SDS011;24784;45.582;5.276;2024-02-23T05:16:26;7.95;;;2.90;;
39016;SDS011;24784;45.582;5.276;2024-02-23T05:18:51;8.80;;;2.17;;
39016;SDS011;24784;45.582;5.276;2024-02-23T05:21:17;9.40;;;2.13;;
39016;SDS011;24784;45.582;5.276;2024-02-23T05:23:43;4.93;;;1.63;;
39016;SDS011;24784;45.582;5.276;2024-02-23T05:26:08;8.82;;;1.80;;
39016;SDS011;24784;45.582;5.276;2024-02-23T05:28:35;6.43;;;1.70;;
39016;SDS011;24784;45.582;5.276;2024-02-23T05:31:02;10.02;;;1.73;;
39016;SDS011;24784;45.582;5.276;2024-02-23T05:33:28;5.68;;;1.65;;
39016;SDS011;24784;45.582;5.276;2024-02-23T05:35:54;5.75;;;1.70;;
39016;SDS011;24784;45.582;5.276;2024-02-23T05:38:20;15.63;;;2.50;;
39016;SDS011;24784;45.582;5.276;2024-02-23T05:40:45;5.20;;;2.00;;
39016;SDS011;24784;45.582;5.276;2024-02-23T05:43:13;8.05;;;2.20;;
39016;SDS011;24784;45.582;5.276;2024-02-23T05:45:39;5.82;;;2.45;;
39016;SDS011;24784;45.582;5.276;2024-02-23T05:48:04;7.72;;;2.10;;
39016;SDS011;24784;45.582;5.276;2024-02-23T05:50:31;5.47;;;1.40;;
39016;SDS011;24784;45.582;5.276;2024-02-23T05:52:57;8.68;;;2.15;;
39016;SDS011;24784;45.582;5.276;2024-02-23T05:55:23;14.18;;;3.72;;
39016;SDS011;24784;45.582;5.276;2024-02-23T05:57:49;12.52;;;2.50;;
39016;SDS011;24784;45.582;5.276;2024-02-23T06:00:15;6.47;;;1.77;;
39016;SDS011;24784;45.582;5.276;2024-02-23T06:02:44;8.70;;;3.03;;
39016;SDS011;24784;45.582;5.276;2024-02-23T06:05:11;6.38;;;1.88;;
39016;SDS011;24784;45.582;5.276;2024-02-23T06:07:37;15.20;;;2.30;;
39016;SDS011;24784;45.582;5.276;2024-02-23T06:10:03;5.00;;;2.13;;
39016;SDS011;24784;45.582;5.276;2024-02-23T06:12:30;9.52;;;2.47;;
39016;SDS011;24784;45.582;5.276;2024-02-23T06:14:55;9.82;;;2.50;;
39016;SDS011;24784;45.582;5.276;2024-02-23T06:17:23;13.95;;;2.35;;
39016;SDS011;24784;45.582;5.276;2024-02-23T06:19:49;10.07;;;3.22;;
39016;SDS011;24784;45.582;5.276;2024-02-23T06:22:15;9.63;;;2.50;;
39016;SDS011;24784;45.582;5.276;2024-02-23T06:24:45;8.85;;;2.25;;
39016;SDS011;24784;45.582;5.276;2024-02-23T06:27:14;7.40;;;2.17;;
39016;SDS011;24784;45.582;5.276;2024-02-23T06:29:40;9.82;;;3.35;;
39016;SDS011;24784;45.582;5.276;2024-02-23T06:32:05;8.65;;;2.85;;
39016;SDS011;24784;45.582;5.276;2024-02-23T06:34:31;11.27;;;3.15;;
39016;SDS011;24784;45.582;5.276;2024-02-23T06:36:57;54.10;;;17.63;;
39016;SDS011;24784;45.582;5.276;2024-02-23T06:39:22;91.78;;;31.75;;
39016;SDS011;24784;45.582;5.276;2024-02-23T06:41:48;111.85;;;39.55;;
39016;SDS011;24784;45.582;5.276;2024-02-23T06:44:14;59.20;;;22.23;;
39016;SDS011;24784;45.582;5.276;2024-02-23T06:46:39;32.15;;;12.02;;
39016;SDS011;24784;45.582;5.276;2024-02-23T06:49:06;15.40;;;5.57;;
39016;SDS011;24784;45.582;5.276;2024-02-23T06:51:32;11.88;;;4.90;;
39016;SDS011;24784;45.582;5.276;2024-02-23T06:53:58;12.73;;;4.55;;
39016;SDS011;24784;45.582;5.276;2024-02-23T06:56:23;13.35;;;4.20;;
39016;SDS011;24784;45.582;5.276;2024-02-23T06:58:49;9.85;;;3.15;;
39016;SDS011;24784;45.582;5.276;2024-02-23T07:01:15;9.82;;;3.10;;
39016;SDS011;24784;45.582;5.276;2024-02-23T07:03:40;10.23;;;3.50;;
39016;SDS011;24784;45.582;5.276;2024-02-23T07:06:08;12.35;;;4.95;;
39016;SDS011;24784;45.582;5.276;2024-02-23T07:08:36;17.00;;;3.85;;
39016;SDS011;24784;45.582;5.276;2024-02-23T07:11:02;11.15;;;3.45;;
39016;SDS011;24784;45.582;5.276;2024-02-23T07:15:55;8.73;;;3.42;;
39016;SDS011;24784;45.582;5.276;2024-02-23T07:18:21;14.38;;;3.65;;
39016;SDS011;24784;45.582;5.276;2024-02-23T07:20:47;16.42;;;4.03;;
39016;SDS011;24784;45.582;5.276;2024-02-23T07:23:12;16.85;;;4.22;;
39016;SDS011;24784;45.582;5.276;2024-02-23T07:25:38;11.73;;;3.28;;
39016;SDS011;24784;45.582;5.276;2024-02-23T07:28:04;12.02;;;3.70;;
39016;SDS011;24784;45.582;5.276;2024-02-23T07:30:30;10.07;;;3.53;;
39016;SDS011;24784;45.582;5.276;2024-02-23T07:32:55;11.45;;;3.20;;
39016;SDS011;24784;45.582;5.276;2024-02-23T07:35:21;11.68;;;3.25;;
39016;SDS011;24784;45.582;5.276;2024-02-23T07:37:47;8.98;;;3.70;;
39016;SDS011;24784;45.582;5.276;2024-02-23T07:40:12;9.38;;;4.53;;
39016;SDS011;24784;45.582;5.276;2024-02-23T07:42:38;13.80;;;4.28;;
39016;SDS011;24784;45.582;5.276;2024-02-23T07:45:04;15.75;;;3.90;;
39016;SDS011;24784;45.582;5.276;2024-02-23T07:47:31;17.70;;;4.05;;
39016;SDS011;24784;45.582;5.276;2024-02-23T07:49:57;13.60;;;4.05;;
39016;SDS011;24784;45.582;5.276;2024-02-23T07:52:23;9.30;;;3.42;;
39016;SDS011;24784;45.582;5.276;2024-02-23T07:54:50;12.98;;;3.95;;
39016;SDS011;24784;45.582;5.276;2024-02-23T07:57:17;10.95;;;4.20;;
39016;SDS011;24784;45.582;5.276;2024-02-23T07:59:43;20.42;;;4.15;;
39016;SDS011;24784;45.582;5.276;2024-02-23T08:02:09;16.63;;;4.05;;
39016;SDS011;24784;45.582;5.276;2024-02-23T08:04:34;11.18;;;3.60;;
39016;SDS011;24784;45.582;5.276;2024-02-23T08:07:00;14.70;;;4.22;;
39016;SDS011;24784;45.582;5.276;2024-02-23T08:09:26;10.77;;;3.33;;
39016;SDS011;24784;45.582;5.276;2024-02-23T08:11:52;11.18;;;4.15;;
39016;SDS011;24784;45.582;5.276;2024-02-23T08:14:17;15.73;;;3.90;;
39016;SDS011;24784;45.582;5.276;2024-02-23T08:16:43;13.05;;;3.42;;
39016;SDS011;24784;45.582;5.276;2024-02-23T08:19:08;10.98;;;3.47;;
39016;SDS011;24784;45.582;5.276;2024-02-23T08:21:34;16.13;;;3.72;;
39016;SDS011;24784;45.582;5.276;2024-02-23T08:24:00;28.05;;;4.30;;
39016;SDS011;24784;45.582;5.276;2024-02-23T08:26:25;8.85;;;3.30;;
39016;SDS011;24784;45.582;5.276;2024-02-23T08:28:51;7.63;;;3.15;;
39016;SDS011;24784;45.582;5.276;2024-02-23T08:31:16;8.40;;;3.13;;
39016;SDS011;24784;45.582;5.276;2024-02-23T08:33:42;11.40;;;3.08;;
39016;SDS011;24784;45.582;5.276;2024-02-23T08:36:08;10.80;;;2.75;;
39016;SDS011;24784;45.582;5.276;2024-02-23T08:38:35;9.60;;;3.33;;
39016;SDS011;24784;45.582;5.276;2024-02-23T08:41:02;6.93;;;3.20;;
39016;SDS011;24784;45.582;5.276;2024-02-23T08:43:28;8.43;;;2.88;;
39016;SDS011;24784;45.582;5.276;2024-02-23T08:45:53;19.08;;;3.42;;
39016;SDS011;24784;45.582;5.276;2024-02-23T08:48:19;10.32;;;3.42;;
39016;SDS011;24784;45.582;5.276;2024-02-23T08:50:45;12.57;;;3.00;;
39016;SDS011;24784;45.582;5.276;2024-02-23T08:53:10;10.98;;;2.67;;
39016;SDS011;24784;45.582;5.276;2024-02-23T08:55:36;14.68;;;3.63;;
39016;SDS011;24784;45.582;5.276;2024-02-23T08:58:02;12.20;;;4.43;;
39016;SDS011;24784;45.582;5.276;2024-02-23T09:00:27;19.10;;;3.22;;
39016;SDS011;24784;45.582;5.276;2024-02-23T09:02:53;13.27;;;3.35;;
39016;SDS011;24784;45.582;5.276;2024-02-23T09:05:19;14.80;;;3.20;;
39016;SDS011;24784;45.582;5.276;2024-02-23T09:07:45;8.30;;;3.25;;
39016;SDS011;24784;45.582;5.276;2024-02-23T09:10:11;16.42;;;3.67;;
39016;SDS011;24784;45.582;5.276;2024-02-23T09:12:37;13.73;;;3.30;;
39016;SDS011;24784;45.582;5.276;2024-02-23T09:15:03;10.73;;;3.30;;
39016;SDS011;24784;45.582;5.276;2024-02-23T09:17:30;7.80;;;2.67;;
39016;SDS011;24784;45.582;5.276;2024-02-23T09:19:55;12.50;;;3.63;;
39016;SDS011;24784;45.582;5.276;2024-02-23T09:22:21;12.48;;;3.92;;
39016;SDS011;24784;45.582;5.276;2024-02-23T09:24:47;13.18;;;4.03;;
39016;SDS011;24784;45.582;5.276;2024-02-23T09:27:13;12.57;;;4.15;;
39016;SDS011;24784;45.582;5.276;2024-02-23T09:29:40;12.27;;;4.03;;
39016;SDS011;24784;45.582;5.276;2024-02-23T09:32:06;11.93;;;3.38;;
39016;SDS011;24784;45.582;5.276;2024-02-23T09:34:32;17.13;;;4.00;;
39016;SDS011;24784;45.582;5.276;2024-02-23T09:36:58;12.15;;;2.67;;
39016;SDS011;24784;45.582;5.276;2024-02-23T09:39:23;11.55;;;2.63;;
39016;SDS011;24784;45.582;5.276;2024-02-23T09:41:51;7.57;;;2.17;;
39016;SDS011;24784;45.582;5.276;2024-02-23T09:44:19;11.50;;;2.58;;
39016;SDS011;24784;45.582;5.276;2024-02-23T09:46:48;10.43;;;2.10;;
39016;SDS011;24784;45.582;5.276;2024-02-23T09:49:15;9.55;;;2.65;;
39016;SDS011;24784;45.582;5.276;2024-02-23T09:51:43;11.10;;;2.92;;
39016;SDS011;24784;45.582;5.276;2024-02-23T09:54:09;7.97;;;2.40;;
39016;SDS011;24784;45.582;5.276;2024-02-23T09:56:35;7.53;;;2.80;;
39016;SDS011;24784;45.582;5.276;2024-02-23T09:59:02;10.73;;;3.47;;
39016;SDS011;24784;45.582;5.276;2024-02-23T10:01:32;20.35;;;4.55;;
39016;SDS011;24784;45.582;5.276;2024-02-23T10:03:58;9.60;;;4.57;;
39016;SDS011;24784;45.582;5.276;2024-02-23T10:06:25;9.63;;;2.90;;
39016;SDS011;24784;45.582;5.276;2024-02-23T10:08:51;10.40;;;3.88;;
39016;SDS011;24784;45.582;5.276;2024-02-23T10:11:20;14.30;;;2.40;;
39016;SDS011;24784;45.582;5.276;2024-02-23T10:13:47;7.85;;;1.73;;
39016;SDS011;24784;45.582;5.276;2024-02-23T10:16:14;5.05;;;2.05;;
39016;SDS011;24784;45.582;5.276;2024-02-23T10:18:41;6.95;;;1.45;;
39016;SDS011;24784;45.582;5.276;2024-02-23T10:21:06;4.18;;;1.40;;
39016;SDS011;24784;45.582;5.276;2024-02-23T10:23:33;3.50;;;1.10;;
39016;SDS011;24784;45.582;5.276;2024-02-23T10:25:58;3.50;;;1.30;;
39016;SDS011;24784;45.582;5.276;2024-02-23T10:28:24;7.15;;;1.83;;
39016;SDS011;24784;45.582;5.276;2024-02-23T10:30:50;4.05;;;1.10;;
39016;SDS011;24784;45.582;5.276;2024-02-23T10:33:16;7.65;;;1.58;;
39016;SDS011;24784;45.582;5.276;2024-02-23T10:35:47;5.57;;;1.40;;
39016;SDS011;24784;45.582;5.276;2024-02-23T10:38:15;5.43;;;1.42;;
39016;SDS011;24784;45.582;5.276;2024-02-23T10:40:43;4.20;;;1.58;;
39016;SDS011;24784;45.582;5.276;2024-02-23T10:43:11;6.70;;;3.13;;
39016;SDS011;24784;45.582;5.276;2024-02-23T10:45:41;16.85;;;8.88;;
39016;SDS011;24784;45.582;5.276;2024-02-23T10:48:09;30.75;;;13.68;;
39016;SDS011;24784;45.582;5.276;2024-02-23T10:50:36;13.07;;;4.53;;
39016;SDS011;24784;45.582;5.276;2024-02-23T10:53:07;7.90;;;2.88;;
39016;SDS011;24784;45.582;5.276;2024-02-23T10:55:36;6.43;;;1.90;;
39016;SDS011;24784;45.582;5.276;2024-02-23T10:58:04;9.13;;;2.10;;
39016;SDS011;24784;45.582;5.276;2024-02-23T11:00:35;6.60;;;1.75;;
39016;SDS011;24784;45.582;5.276;2024-02-23T11:03:02;7.45;;;3.20;;
39016;SDS011;24784;45.582;5.276;2024-02-23T11:05:29;11.40;;;2.10;;
39016;SDS011;24784;45.582;5.276;2024-02-23T11:07:56;6.13;;;1.40;;
39016;SDS011;24784;45.582;5.276;2024-02-23T11:10:22;6.65;;;2.75;;
39016;SDS011;24784;45.582;5.276;2024-02-23T11:12:57;6.85;;;2.80;;
39016;SDS011;24784;45.582;5.276;2024-02-23T11:15:27;17.95;;;8.77;;
39016;SDS011;24784;45.582;5.276;2024-02-23T11:17:54;33.13;;;17.15;;
39016;SDS011;24784;45.582;5.276;2024-02-23T11:20:21;14.40;;;5.97;;
39016;SDS011;24784;45.582;5.276;2024-02-23T11:22:56;9.77;;;2.13;;
39016;SDS011;24784;45.582;5.276;2024-02-23T11:25:26;10.85;;;2.47;;
39016;SDS011;24784;45.582;5.276;2024-02-23T11:27:52;8.98;;;2.30;;
39016;SDS011;24784;45.582;5.276;2024-02-23T11:30:17;7.82;;;1.80;;
39016;SDS011;24784;45.582;5.276;2024-02-23T11:32:44;8.30;;;2.03;;
39016;SDS011;24784;45.582;5.276;2024-02-23T11:35:16;5.68;;;1.27;;
39016;SDS011;24784;45.582;5.276;2024-02-23T11:40:23;4.28;;;1.30;;
39016;SDS011;24784;45.582;5.276;2024-02-23T11:42:50;4.78;;;1.50;;
39016;SDS011;24784;45.582;5.276;2024-02-23T11:45:16;4.93;;;1.38;;
39016;SDS011;24784;45.582;5.276;2024-02-23T11:47:42;5.97;;;1.42;;
39016;SDS011;24784;45.582;5.276;2024-02-23T11:50:08;4.43;;;1.40;;
39016;SDS011;24784;45.582;5.276;2024-02-23T11:52:35;3.83;;;1.10;;
39016;SDS011;24784;45.582;5.276;2024-02-23T11:55:02;10.32;;;1.85;;
39016;SDS011;24784;45.582;5.276;2024-02-23T11:57:30;4.40;;;1.50;;
39016;SDS011;24784;45.582;5.276;2024-02-23T11:59:56;4.60;;;1.38;;
39016;SDS011;24784;45.582;5.276;2024-02-23T12:02:21;5.30;;;1.50;;
39016;SDS011;24784;45.582;5.276;2024-02-23T12:04:49;5.05;;;1.48;;
39016;SDS011;24784;45.582;5.276;2024-02-23T12:07:15;9.73;;;2.67;;
39016;SDS011;24784;45.582;5.276;2024-02-23T12:09:41;7.70;;;1.73;;
39016;SDS011;24784;45.582;5.276;2024-02-23T12:12:07;4.05;;;1.38;;
39016;SDS011;24784;45.582;5.276;2024-02-23T12:14:37;4.93;;;1.05;;
39016;SDS011;24784;45.582;5.276;2024-02-23T12:17:02;4.53;;;1.13;;
39016;SDS011;24784;45.582;5.276;2024-02-23T12:19:32;3.92;;;1.55;;
39016;SDS011;24784;45.582;5.276;2024-02-23T12:22:00;4.65;;;2.20;;
39016;SDS011;24784;45.582;5.276;2024-02-23T12:24:26;5.03;;;1.50;;
39016;SDS011;24784;45.582;5.276;2024-02-23T12:26:55;2.67;;;1.08;;
39016;SDS011;24784;45.582;5.276;2024-02-23T12:29:21;8.45;;;1.33;;
39016;SDS011;24784;45.582;5.276;2024-02-23T12:31:47;3.63;;;0.95;;
39016;SDS011;24784;45.582;5.276;2024-02-23T12:34:13;5.60;;;1.58;;
39016;SDS011;24784;45.582;5.276;2024-02-23T12:36:38;5.78;;;1.95;;
39016;SDS011;24784;45.582;5.276;2024-02-23T12:39:04;6.72;;;2.20;;
39016;SDS011;24784;45.582;5.276;2024-02-23T12:41:30;9.18;;;1.70;;
39016;SDS011;24784;45.582;5.276;2024-02-23T12:43:56;5.47;;;1.30;;
39016;SDS011;24784;45.582;5.276;2024-02-23T12:46:22;6.45;;;1.60;;
39016;SDS011;24784;45.582;5.276;2024-02-23T12:48:48;5.78;;;1.38;;
39016;SDS011;24784;45.582;5.276;2024-02-23T12:51:14;7.10;;;2.22;;
39016;SDS011;24784;45.582;5.276;2024-02-23T12:53:41;8.40;;;1.42;;
39016;SDS011;24784;45.582;5.276;2024-02-23T12:56:11;5.95;;;1.25;;
39016;SDS011;24784;45.582;5.276;2024-02-23T12:58:39;7.18;;;1.20;;
39016;SDS011;24784;45.582;5.276;2024-02-23T13:01:05;3.20;;;1.58;;
39016;SDS011;24784;45.582;5.276;2024-02-23T13:03:32;5.25;;;1.55;;
39016;SDS011;24784;45.582;5.276;2024-02-23T13:05:58;4.65;;;1.30;;
39016;SDS011;24784;45.582;5.276;2024-02-23T13:08:24;6.93;;;1.20;;
39016;SDS011;24784;45.582;5.276;2024-02-23T13:10:51;7.15;;;1.42;;
39016;SDS011;24784;45.582;5.276;2024-02-23T13:13:18;5.43;;;1.63;;
39016;SDS011;24784;45.582;5.276;2024-02-23T13:15:44;2.65;;;1.30;;
39016;SDS011;24784;45.582;5.276;2024-02-23T13:18:16;3.33;;;1.48;;
39016;SDS011;24784;45.582;5.276;2024-02-23T13:20:41;7.10;;;1.80;;
39016;SDS011;24784;45.582;5.276;2024-02-23T13:23:08;5.57;;;2.13;;
39016;SDS011;24784;45.582;5.276;2024-02-23T13:25:40;2.88;;;1.48;;
39016;SDS011;24784;45.582;5.276;2024-02-23T13:28:06;2.67;;;1.30;;
39016;SDS011;24784;45.582;5.276;2024-02-23T13:30:32;4.40;;;1.50;;
39016;SDS011;24784;45.582;5.276;2024-02-23T13:32:59;9.07;;;1.50;;
39016;SDS011;24784;45.582;5.276;2024-02-23T13:35:28;4.05;;;1.42;;
39016;SDS011;24784;45.582;5.276;2024-02-23T13:37:54;10.15;;;3.42;;
39016;SDS011;24784;45.582;5.276;2024-02-23T13:40:19;3.10;;;1.60;;
39016;SDS011;24784;45.582;5.276;2024-02-23T13:42:45;2.53;;;0.90;;
39016;SDS011;24784;45.582;5.276;2024-02-23T13:45:14;3.80;;;1.05;;
39016;SDS011;24784;45.582;5.276;2024-02-23T13:47:41;5.05;;;1.38;;
39016;SDS011;24784;45.582;5.276;2024-02-23T13:50:08;3.13;;;1.48;;
39016;SDS011;24784;45.582;5.276;2024-02-23T13:52:34;4.00;;;1.38;;
39016;SDS011;24784;45.582;5.276;2024-02-23T13:55:00;4.22;;;1.83;;
39016;SDS011;24784;45.582;5.276;2024-02-23T13:57:25;5.32;;;1.58;;
39016;SDS011;24784;45.582;5.276;2024-02-23T13:59:51;4.95;;;1.60;;
39016;SDS011;24784;45.582;5.276;2024-02-23T14:02:24;4.03;;;1.33;;
39016;SDS011;24784;45.582;5.276;2024-02-23T14:04:50;4.82;;;1.50;;
39016;SDS011;24784;45.582;5.276;2024-02-23T14:07:16;3.50;;;1.10;;
39016;SDS011;24784;45.582;5.276;2024-02-23T14:09:43;6.68;;;1.25;;
39016;SDS011;24784;45.582;5.276;2024-02-23T14:12:08;6.32;;;2.42;;
39016;SDS011;24784;45.582;5.276;2024-02-23T14:14:34;5.03;;;1.90;;
39016;SDS011;24784;45.582;5.276;2024-02-23T14:17:00;3.28;;;1.70;;
39016;SDS011;24784;45.582;5.276;2024-02-23T14:19:25;6.35;;;1.58;;
39016;SDS011;24784;45.582;5.276;2024-02-23T14:21:51;6.28;;;1.48;;
39016;SDS011;24784;45.582;5.276;2024-02-23T14:24:17;5.57;;;1.17;;
39016;SDS011;24784;45.582;5.276;2024-02-23T14:26:43;3.40;;;1.00;;
39016;SDS011;24784;45.582;5.276;2024-02-23T14:29:09;4.85;;;1.20;;
39016;SDS011;24784;45.582;5.276;2024-02-23T14:31:34;2.72;;;0.88;;
39016;SDS011;24784;45.582;5.276;2024-02-23T14:34:00;5.25;;;1.00;;
39016;SDS011;24784;45.582;5.276;2024-02-23T14:36:26;2.20;;;1.02;;
39016;SDS011;24784;45.582;5.276;2024-02-23T14:38:52;4.60;;;1.15;;
39016;SDS011;24784;45.582;5.276;2024-02-23T14:41:18;2.55;;;0.90;;
39016;SDS011;24784;45.582;5.276;2024-02-23T14:43:44;3.72;;;1.00;;
39016;SDS011;24784;45.582;5.276;2024-02-23T14:46:09;3.78;;;1.88;;